createdAt,value
2022-10-16T00:00:22.417Z,95527.1
2022-10-16T00:01:24.893Z,95532.6
2022-10-16T00:02:27.742Z,95536.9
2022-10-16T00:03:31.739Z,95537
2022-10-16T00:04:33.907Z,95536.5
2022-10-16T00:05:36.117Z,95546.6
2022-10-16T00:06:38.598Z,95545.2
2022-10-16T00:07:41.108Z,95544.1
2022-10-16T00:08:43.570Z,95541.6
2022-10-16T00:09:46.053Z,95544.1
2022-10-16T00:10:47.971Z,95545
2022-10-16T00:11:50.359Z,95542.9
2022-10-16T00:12:52.896Z,95546.1
2022-10-16T00:13:55.100Z,95548.8
2022-10-16T00:14:57.623Z,95545.5
2022-10-16T00:15:59.847Z,95545.5
2022-10-16T00:17:02.331Z,95548.2
2022-10-16T00:18:04.820Z,95543.4
2022-10-16T00:19:07.579Z,95533.5
2022-10-16T00:20:09.793Z,95535.8
2022-10-16T00:21:11.982Z,95534.3
2022-10-16T00:22:14.187Z,95532.7
2022-10-16T00:23:16.680Z,95535.9
2022-10-16T00:24:18.605Z,95539.5
2022-10-16T00:25:20.790Z,95543.6
2022-10-16T00:26:22.690Z,95543.9
2022-10-16T00:27:24.610Z,95543.3
2022-10-16T00:28:27.275Z,95541.2
2022-10-16T00:29:29.622Z,95542.2
2022-10-16T00:30:31.903Z,95539.5
2022-10-16T00:31:34.419Z,95537.2
2022-10-16T00:32:36.631Z,95534
2022-10-16T00:33:38.823Z,95536.1
2022-10-16T00:34:41.318Z,95541.3
2022-10-16T00:35:43.224Z,95544.8
2022-10-16T00:36:45.145Z,95540.9
2022-10-16T00:37:47.335Z,95540.3
2022-10-16T00:38:49.781Z,95537.1
2022-10-16T00:39:52.352Z,95532.6
2022-10-16T00:40:54.836Z,95538.2
2022-10-16T00:41:57.039Z,95540.7
2022-10-16T00:42:59.244Z,95546.9
2022-10-16T00:44:01.719Z,95549.3
2022-10-16T00:45:03.915Z,95548.3
2022-10-16T00:46:06.453Z,95549.2
2022-10-16T00:47:08.960Z,95551.7
2022-10-16T00:48:11.188Z,95550.3
2022-10-16T00:49:13.136Z,95553.6
2022-10-16T00:50:15.045Z,95549.4
2022-10-16T00:51:17.238Z,95547.7
2022-10-16T00:52:19.447Z,95548
2022-10-16T00:53:21.912Z,95542.1
2022-10-16T00:54:24.408Z,95540.7
2022-10-16T00:55:26.881Z,95537.9
2022-10-16T00:56:29.362Z,95541.4
2022-10-16T00:57:31.824Z,95538.7
2022-10-16T00:58:34.026Z,95547
2022-10-16T00:59:36.500Z,95552.6
2022-10-16T01:00:38.705Z,95549.8
2022-10-16T01:01:41.244Z,95552.3
2022-10-16T01:02:43.460Z,95550.8
2022-10-16T01:03:46.488Z,95549.7
2022-10-16T01:04:48.959Z,95555.2
2022-10-16T01:05:50.897Z,95557.5
2022-10-16T01:06:53.367Z,95559
2022-10-16T01:07:55.840Z,95557.4
2022-10-16T01:08:57.761Z,95556.1
2022-10-16T01:09:59.957Z,95560
2022-10-16T01:11:02.452Z,95562.2
2022-10-16T01:12:04.632Z,95561.5
2022-10-16T01:13:06.292Z,95566.1
2022-10-16T01:14:08.756Z,95566.1
2022-10-16T01:15:11.233Z,95565.3
2022-10-16T01:16:13.702Z,95565.9
2022-10-16T01:17:16.224Z,95563.2
2022-10-16T01:18:18.706Z,95567.3
2022-10-16T01:19:21.182Z,95562.9
2022-10-16T01:20:23.096Z,95561.9
2022-10-16T01:21:25.574Z,95565.3
2022-10-16T01:22:27.740Z,95566.6
2022-10-16T01:23:30.213Z,95565
2022-10-16T01:24:32.410Z,95562.6
2022-10-16T01:25:34.908Z,95565.8
2022-10-16T01:26:37.398Z,95564
2022-10-16T01:27:39.599Z,95565
2022-10-16T01:28:41.774Z,95567.2
2022-10-16T01:29:44.041Z,95571.5
2022-10-16T01:30:46.512Z,95568.8
2022-10-16T01:31:48.708Z,95570.5
2022-10-16T01:32:50.967Z,95570.4
2022-10-16T01:34:57.066Z,95566.3
2022-10-16T01:35:58.975Z,95569.1
2022-10-16T01:37:01.448Z,95565.8
2022-10-16T01:38:03.639Z,95569.3
2022-10-16T01:39:05.560Z,95568.7
2022-10-16T01:40:07.749Z,95570.6
2022-10-16T01:41:09.941Z,95570.4
2022-10-16T01:42:12.407Z,95572.2
2022-10-16T01:43:14.612Z,95565
2022-10-16T01:44:16.801Z,95561.2
2022-10-16T01:45:19.074Z,95560.9
2022-10-16T01:46:21.632Z,95555.9
2022-10-16T01:47:25.146Z,95560.6
2022-10-16T01:48:28.313Z,95560.9
2022-10-16T01:49:30.813Z,95555.9
2022-10-16T01:50:32.989Z,95553.7
2022-10-16T01:51:35.186Z,95551.4
2022-10-16T01:52:37.374Z,95553.4
2022-10-16T01:53:39.853Z,95553.4
2022-10-16T01:54:42.316Z,95548
2022-10-16T01:55:44.782Z,95548.1
2022-10-16T01:56:46.997Z,95549.2
2022-10-16T01:57:49.489Z,95542
2022-10-16T01:58:51.692Z,95544.8
2022-10-16T01:59:53.886Z,95543.8
2022-10-16T02:00:56.624Z,95543.8
2022-10-16T02:01:59.290Z,95542.3
2022-10-16T02:03:01.775Z,95546.7
2022-10-16T02:04:04.035Z,95549.4
2022-10-16T02:05:06.512Z,95548
2022-10-16T02:06:08.988Z,95549.7
2022-10-16T02:07:11.467Z,95539.8
2022-10-16T02:08:13.410Z,95544.6
2022-10-16T02:09:15.607Z,95540.3
2022-10-16T02:10:18.331Z,95546.4
2022-10-16T02:11:20.599Z,95550.8
2022-10-16T02:12:23.100Z,95547.2
2022-10-16T02:13:26.215Z,95547.9
2022-10-16T02:14:28.709Z,95546
2022-10-16T02:15:30.914Z,95545.3
2022-10-16T02:16:33.386Z,95552.3
2022-10-16T02:17:35.863Z,95546.6
2022-10-16T02:18:38.086Z,95555.7
2022-10-16T02:19:40.728Z,95553.9
2022-10-16T02:20:43.250Z,95555.1
2022-10-16T02:21:45.439Z,95553.8
2022-10-16T02:22:47.632Z,95550.3
2022-10-16T02:23:50.097Z,95545.8
2022-10-16T02:24:52.576Z,95537
2022-10-16T02:25:55.036Z,95540
2022-10-16T02:26:57.217Z,95542.7
2022-10-16T02:27:59.408Z,95542.3
2022-10-16T02:29:01.882Z,95547.2
2022-10-16T02:30:03.831Z,95549.6
2022-10-16T02:31:05.761Z,95554.5
2022-10-16T02:32:08.234Z,95552.6
2022-10-16T02:33:10.704Z,95549.7
2022-10-16T02:34:12.340Z,95554.4
2022-10-16T02:35:14.882Z,95556.6
2022-10-16T02:36:17.392Z,95559
2022-10-16T02:37:19.581Z,95552.6
2022-10-16T02:38:21.771Z,95552.4
2022-10-16T02:39:24.244Z,95548.9
2022-10-16T02:40:26.530Z,95556.7
2022-10-16T02:41:28.995Z,95564.2
2022-10-16T02:42:30.899Z,95567.5
2022-10-16T02:43:33.115Z,95567.3
2022-10-16T02:44:35.600Z,95564.5
2022-10-16T02:45:38.080Z,95564
2022-10-16T02:46:40.260Z,95561.9
2022-10-16T02:47:42.163Z,95569.5
2022-10-16T02:48:44.656Z,95571.4
2022-10-16T02:49:47.132Z,95572.7
2022-10-16T02:50:49.659Z,95569.6
2022-10-16T02:51:51.866Z,95571.2
2022-10-16T02:52:54.064Z,95569.8
2022-10-16T02:53:56.257Z,95565.2
2022-10-16T02:54:58.751Z,95567.1
2022-10-16T02:56:01.219Z,95565.7
2022-10-16T02:57:03.118Z,95564.2
2022-10-16T02:58:05.318Z,95567.3
2022-10-16T02:59:07.816Z,95566.8
2022-10-16T03:00:09.724Z,95564.9
2022-10-16T03:01:12.200Z,95564.7
2022-10-16T03:02:14.215Z,95565.4
2022-10-16T03:03:16.685Z,95567.1
2022-10-16T03:04:19.246Z,95559.6
2022-10-16T03:06:24.795Z,95561.1
2022-10-16T03:07:28.467Z,95559.8
2022-10-16T03:08:31.381Z,95560.6
2022-10-16T03:09:33.849Z,95559.2
2022-10-16T03:10:36.323Z,95563.8
2022-10-16T03:11:38.802Z,95564.8
2022-10-16T03:12:40.991Z,95564.3
2022-10-16T03:13:43.188Z,95565
2022-10-16T03:14:45.673Z,95565.3
2022-10-16T03:15:48.147Z,95562.7
2022-10-16T03:16:49.805Z,95564.3
2022-10-16T03:17:51.749Z,95560.4
2022-10-16T03:18:54.213Z,95563.4
2022-10-16T03:19:56.690Z,95563.2
2022-10-16T03:20:58.887Z,95562
2022-10-16T03:22:01.418Z,95565.5
2022-10-16T03:23:03.620Z,95561.9
2022-10-16T03:24:05.834Z,95561.9
2022-10-16T03:25:08.319Z,95565.4
2022-10-16T03:26:10.510Z,95567
2022-10-16T03:27:12.712Z,95568.9
2022-10-16T03:28:14.620Z,95567.9
2022-10-16T03:29:17.107Z,95569.8
2022-10-16T03:30:19.070Z,95566
2022-10-16T03:31:21.278Z,95567.7
2022-10-16T03:32:24.003Z,95566
2022-10-16T03:33:26.571Z,95562
2022-10-16T03:34:28.208Z,95561.7
2022-10-16T03:35:30.421Z,95560.3
2022-10-16T03:36:32.897Z,95567.8
2022-10-16T03:37:35.449Z,95568
2022-10-16T03:38:37.389Z,95568.2
2022-10-16T03:39:39.368Z,95572.3
2022-10-16T03:40:41.545Z,95568.3
2022-10-16T03:41:43.458Z,95576.2
2022-10-16T03:42:45.645Z,95577.4
2022-10-16T03:43:47.562Z,95583.2
2022-10-16T03:44:49.730Z,95577.1
2022-10-16T03:45:51.955Z,95575.3
2022-10-16T03:46:54.179Z,95581
2022-10-16T03:47:56.135Z,95575.2
2022-10-16T03:48:58.330Z,95578
2022-10-16T03:50:00.524Z,95574.2
2022-10-16T03:51:03.016Z,95570.6
2022-10-16T03:52:04.666Z,95569.8
2022-10-16T03:53:06.931Z,95563.9
2022-10-16T03:54:09.143Z,95564.9
2022-10-16T03:55:11.630Z,95565.4
2022-10-16T03:56:14.103Z,95570.5
2022-10-16T03:57:16.569Z,95573.8
2022-10-16T03:58:18.768Z,95572.9
2022-10-16T03:59:21.262Z,95577.6
2022-10-16T04:00:23.747Z,95577.5
2022-10-16T04:01:26.444Z,95574.7
2022-10-16T04:02:28.848Z,95571.3
2022-10-16T04:03:31.042Z,95567.1
2022-10-16T04:04:33.225Z,95569.8
2022-10-16T04:05:35.435Z,95563.9
2022-10-16T04:06:37.912Z,95566.5
2022-10-16T04:07:40.095Z,95569.1
2022-10-16T04:08:42.063Z,95569.7
2022-10-16T04:09:44.559Z,95567
2022-10-16T04:10:47.031Z,95567.3
2022-10-16T04:11:49.500Z,95558.8
2022-10-16T04:12:51.978Z,95557.9
2022-10-16T04:13:54.197Z,95565.6
2022-10-16T04:14:56.117Z,95562.3
2022-10-16T04:15:58.309Z,95566.6
2022-10-16T04:17:01.022Z,95565.6
2022-10-16T04:18:03.500Z,95570.8
2022-10-16T04:19:05.759Z,95568.8
2022-10-16T04:20:07.923Z,95569.7
2022-10-16T04:21:10.401Z,95566.2
2022-10-16T04:22:12.608Z,95566
2022-10-16T04:23:14.634Z,95567.6
2022-10-16T04:24:16.906Z,95567.5
2022-10-16T04:25:19.119Z,95568.4
2022-10-16T04:26:21.334Z,95567.2
2022-10-16T04:27:24.871Z,95568.7
2022-10-16T04:28:28.037Z,95572.6
2022-10-16T04:29:30.338Z,95575.8
2022-10-16T04:30:32.516Z,95573.8
2022-10-16T04:31:34.725Z,95576.1
2022-10-16T04:32:36.937Z,95577.9
2022-10-16T04:33:38.581Z,95576.5
2022-10-16T04:34:40.782Z,95579.1
2022-10-16T04:35:42.964Z,95578.7
2022-10-16T04:36:45.435Z,95578.7
2022-10-16T04:37:47.619Z,95577.6
2022-10-16T04:38:49.259Z,95579.5
2022-10-16T04:39:51.795Z,95579.3
2022-10-16T04:40:54.274Z,95581
2022-10-16T04:41:56.469Z,95580.1
2022-10-16T04:42:58.960Z,95578.6
2022-10-16T04:44:01.142Z,95574.8
2022-10-16T04:45:03.322Z,95575.1
2022-10-16T04:46:05.785Z,95564.4
2022-10-16T04:47:08.259Z,95564.1
2022-10-16T04:48:10.747Z,95564.1
2022-10-16T04:49:12.651Z,95561
2022-10-16T04:50:15.112Z,95561.7
2022-10-16T04:51:17.582Z,95558.8
2022-10-16T04:52:20.046Z,95561.8
2022-10-16T04:53:22.248Z,95553.1
2022-10-16T04:54:24.708Z,95558.2
2022-10-16T04:55:26.973Z,95558.5
2022-10-16T04:56:29.183Z,95564.7
2022-10-16T04:57:31.667Z,95566.9
2022-10-16T04:58:33.289Z,95569.1
2022-10-16T04:59:35.202Z,95573.8
2022-10-16T05:00:37.421Z,95574
2022-10-16T05:01:39.921Z,95574
2022-10-16T05:02:42.623Z,95577.1
2022-10-16T05:03:45.201Z,95575.6
2022-10-16T05:04:47.128Z,95573
2022-10-16T05:05:48.773Z,95569.8
2022-10-16T05:06:51.250Z,95571
2022-10-16T05:07:53.748Z,95570.8
2022-10-16T05:08:56.063Z,95572.9
2022-10-16T05:09:58.242Z,95572.3
2022-10-16T05:11:00.476Z,95573.5
2022-10-16T05:12:02.671Z,95568
2022-10-16T05:13:04.319Z,95572.5
2022-10-16T05:14:07.043Z,95568
2022-10-16T05:15:09.671Z,95567.9
2022-10-16T05:16:11.904Z,95575.1
2022-10-16T05:17:14.391Z,95577.8
2022-10-16T05:18:16.310Z,95580.3
2022-10-16T05:20:23.475Z,95583.4
2022-10-16T05:21:25.676Z,95585.2
2022-10-16T05:22:28.137Z,95578.4
2022-10-16T05:23:30.680Z,95581.5
2022-10-16T05:24:33.146Z,95578.5
2022-10-16T05:25:35.347Z,95576
2022-10-16T05:26:37.595Z,95576.7
2022-10-16T05:27:39.881Z,95574.8
2022-10-16T05:28:42.349Z,95574.8
2022-10-16T05:29:44.627Z,95574.2
2022-10-16T05:30:46.834Z,95576.7
2022-10-16T05:31:49.331Z,95580
2022-10-16T05:32:51.519Z,95585
2022-10-16T05:33:53.736Z,95587.4
2022-10-16T05:34:56.218Z,95590.5
2022-10-16T05:35:58.709Z,95587.2
2022-10-16T05:37:00.897Z,95603.4
2022-10-16T05:38:03.386Z,95602.2
2022-10-16T05:39:05.852Z,95604.2
2022-10-16T05:40:08.326Z,95601.6
2022-10-16T05:41:10.797Z,95605.3
2022-10-16T05:42:13.058Z,95598.5
2022-10-16T05:43:15.271Z,95597.9
2022-10-16T05:44:17.053Z,95599.5
2022-10-16T05:45:19.233Z,95601.4
2022-10-16T05:46:21.726Z,95608.6
2022-10-16T05:47:25.132Z,95606.7
2022-10-16T05:48:27.540Z,95608.6
2022-10-16T05:49:29.737Z,95608
2022-10-16T05:50:31.950Z,95612
2022-10-16T05:51:34.418Z,95612.6
2022-10-16T05:52:36.899Z,95613.3
2022-10-16T05:53:39.413Z,95611.7
2022-10-16T05:54:41.734Z,95608.6
2022-10-16T05:55:43.894Z,95615.1
2022-10-16T05:56:46.374Z,95610.6
2022-10-16T05:57:48.906Z,95613
2022-10-16T05:58:51.408Z,95614.7
2022-10-16T05:59:53.608Z,95617.9
2022-10-16T06:00:55.456Z,95617.1
2022-10-16T06:01:58.047Z,95614
2022-10-16T06:03:00.527Z,95620.3
2022-10-16T06:04:03.110Z,95620.2
2022-10-16T06:05:05.718Z,95616.4
2022-10-16T06:07:12.908Z,95622.6
2022-10-16T06:08:15.401Z,95614.3
2022-10-16T06:09:17.590Z,95622
2022-10-16T06:10:19.765Z,95621.7
2022-10-16T06:11:22.241Z,95625.5
2022-10-16T06:12:24.735Z,95626.2
2022-10-16T06:13:27.267Z,95631.4
2022-10-16T06:14:29.207Z,95625.2
2022-10-16T06:15:31.680Z,95627.5
2022-10-16T06:16:34.157Z,95626.1
2022-10-16T06:17:36.084Z,95624.9
2022-10-16T06:18:37.998Z,95631.2
2022-10-16T06:19:39.922Z,95638.5
2022-10-16T06:20:42.127Z,95637.8
2022-10-16T06:21:44.321Z,95638.5
2022-10-16T06:22:46.407Z,95633.6
2022-10-16T06:23:48.766Z,95633.6
2022-10-16T06:24:50.973Z,95634
2022-10-16T06:25:53.191Z,95635.5
2022-10-16T06:26:55.668Z,95636.3
2022-10-16T06:27:57.864Z,95635.2
2022-10-16T06:29:00.951Z,95640.9
2022-10-16T06:30:03.282Z,95644.1
2022-10-16T06:32:10.173Z,95647.4
2022-10-16T06:33:11.801Z,95646.4
2022-10-16T06:34:14.017Z,95645.7
2022-10-16T06:35:15.929Z,95648.4
2022-10-16T06:36:18.126Z,95647.4
2022-10-16T06:37:20.614Z,95649.5
2022-10-16T06:38:22.803Z,95650.1
2022-10-16T06:39:24.734Z,95651.1
2022-10-16T06:40:27.379Z,95647.5
2022-10-16T06:41:29.600Z,95658.1
2022-10-16T06:42:32.085Z,95651.6
2022-10-16T06:43:33.987Z,95663.5
2022-10-16T06:44:36.512Z,95660.3
2022-10-16T06:45:39.007Z,95661.4
2022-10-16T06:46:41.615Z,95662.9
2022-10-16T06:47:43.824Z,95665.8
2022-10-16T06:48:46.300Z,95669
2022-10-16T06:50:53.947Z,95672.4
2022-10-16T06:51:56.532Z,95668.5
2022-10-16T06:52:58.723Z,95668.6
2022-10-16T06:55:05.654Z,95673.3
2022-10-16T06:56:07.866Z,95673.6
2022-10-16T06:57:10.081Z,95674.1
2022-10-16T06:58:12.288Z,95675.9
2022-10-16T06:59:14.486Z,95674.4
2022-10-16T07:00:17.038Z,95672.7
2022-10-16T07:01:19.624Z,95673.6
2022-10-16T07:02:21.544Z,95670.6
2022-10-16T07:03:23.747Z,95673.2
2022-10-16T07:04:25.921Z,95674.9
2022-10-16T07:05:28.386Z,95673.9
2022-10-16T07:06:30.590Z,95673.2
2022-10-16T07:07:32.773Z,95677.3
2022-10-16T07:08:34.999Z,95681.4
2022-10-16T07:09:37.639Z,95682.5
2022-10-16T07:10:39.821Z,95683.1
2022-10-16T07:11:42.295Z,95683.5
2022-10-16T07:12:44.794Z,95685.3
2022-10-16T07:14:52.284Z,95688.7
2022-10-16T07:15:54.259Z,95690.2
2022-10-16T07:16:56.507Z,95691
2022-10-16T07:17:58.717Z,95691.2
2022-10-16T07:19:02.557Z,95693.5
2022-10-16T07:20:04.498Z,95693.6
2022-10-16T07:21:06.436Z,95693.6
2022-10-16T07:22:08.395Z,95696.8
2022-10-16T07:23:10.327Z,95697.9
2022-10-16T07:24:12.524Z,95703.3
2022-10-16T07:25:14.720Z,95700.3
2022-10-16T07:26:16.932Z,95702.3
2022-10-16T07:27:19.399Z,95702.5
2022-10-16T07:28:21.585Z,95703.7
2022-10-16T07:29:24.174Z,95697.6
2022-10-16T07:30:26.380Z,95702.3
2022-10-16T07:31:28.669Z,95708.3
2022-10-16T07:32:30.889Z,95709.3
2022-10-16T07:33:33.100Z,95709.1
2022-10-16T07:34:34.474Z,95708.3
2022-10-16T07:35:36.938Z,95714.7
2022-10-16T07:36:38.839Z,95714.2
2022-10-16T07:37:41.441Z,95716.8
2022-10-16T07:38:43.631Z,95719
2022-10-16T07:39:45.847Z,95721
2022-10-16T07:40:48.319Z,95719
2022-10-16T07:41:50.241Z,95721.8
2022-10-16T07:42:52.724Z,95723.5
2022-10-16T07:43:54.929Z,95726.7
2022-10-16T07:44:57.454Z,95728.8
2022-10-16T07:47:04.968Z,95729.3
2022-10-16T07:48:07.452Z,95731.1
2022-10-16T07:49:09.925Z,95733.5
2022-10-16T07:50:11.870Z,95730.9
2022-10-16T07:51:14.049Z,95734.9
2022-10-16T07:52:16.520Z,95734.6
2022-10-16T07:53:23.521Z,95735.5
2022-10-16T07:54:27.200Z,95737.5
2022-10-16T07:55:29.699Z,95737.7
2022-10-16T07:56:32.186Z,95740.9
2022-10-16T07:57:34.663Z,95740
2022-10-16T07:58:36.864Z,95738.7
2022-10-16T07:59:39.063Z,95739.7
2022-10-16T08:00:41.530Z,95742.8
2022-10-16T08:01:44.485Z,95743.7
2022-10-16T08:02:47.155Z,95740.3
2022-10-16T08:03:49.365Z,95739.9
2022-10-16T08:04:51.300Z,95739.7
2022-10-16T08:05:53.779Z,95739.6
2022-10-16T08:06:56.252Z,95744
2022-10-16T08:07:58.445Z,95743.3
2022-10-16T08:09:00.935Z,95743.2
2022-10-16T08:10:03.418Z,95740.8
2022-10-16T08:11:05.908Z,95746
2022-10-16T08:12:08.389Z,95744.2
2022-10-16T08:13:10.632Z,95746
2022-10-16T08:14:13.271Z,95746.7
2022-10-16T08:15:15.741Z,95745.6
2022-10-16T08:16:17.652Z,95742.6
2022-10-16T08:17:20.125Z,95745.7
2022-10-16T08:18:22.683Z,95745.9
2022-10-16T08:19:25.167Z,95746.3
2022-10-16T08:20:26.800Z,95751.5
2022-10-16T08:21:28.737Z,95747
2022-10-16T08:22:31.213Z,95748.3
2022-10-16T08:23:33.434Z,95749.1
2022-10-16T08:24:35.707Z,95753.1
2022-10-16T08:25:37.932Z,95752.9
2022-10-16T08:26:40.158Z,95750.9
2022-10-16T08:27:42.636Z,95751.8
2022-10-16T08:28:46.005Z,95749.8
2022-10-16T08:29:48.317Z,95748.5
2022-10-16T08:30:50.806Z,95749.9
2022-10-16T08:31:53.307Z,95754.5
2022-10-16T08:32:55.484Z,95758.1
2022-10-16T08:33:57.739Z,95757.4
2022-10-16T08:35:00.239Z,95759.3
2022-10-16T08:36:02.433Z,95759.9
2022-10-16T08:37:04.638Z,95763.3
2022-10-16T08:38:06.814Z,95757.7
2022-10-16T08:39:09.018Z,95762.3
2022-10-16T08:40:11.679Z,95765.4
2022-10-16T08:41:13.954Z,95762.3
2022-10-16T08:42:16.470Z,95759.2
2022-10-16T08:43:18.677Z,95766.6
2022-10-16T08:44:20.851Z,95770.6
2022-10-16T08:45:23.331Z,95773.1
2022-10-16T08:46:25.538Z,95770.6
2022-10-16T08:47:28.004Z,95775.2
2022-10-16T08:48:30.203Z,95776
2022-10-16T08:49:32.494Z,95776.5
2022-10-16T08:50:34.565Z,95782.1
2022-10-16T08:52:41.741Z,95784.5
2022-10-16T08:53:44.240Z,95788.4
2022-10-16T08:54:46.718Z,95785.6
2022-10-16T08:55:48.920Z,95784
2022-10-16T08:56:51.129Z,95786.7
2022-10-16T08:57:53.357Z,95792.6
2022-10-16T09:00:01.147Z,95795.6
2022-10-16T09:01:04.190Z,95795.5
2022-10-16T09:02:06.239Z,95790.8
2022-10-16T09:03:08.458Z,95792.5
2022-10-16T09:04:11.097Z,95790
2022-10-16T09:05:13.628Z,95791.5
2022-10-16T09:06:16.107Z,95794.1
2022-10-16T09:07:18.302Z,95794.5
2022-10-16T09:08:20.792Z,95792.8
2022-10-16T09:09:23.302Z,95793.3
2022-10-16T09:10:25.199Z,95799
2022-10-16T09:11:27.676Z,95794.7
2022-10-16T09:12:30.782Z,95795.8
2022-10-16T09:13:33.283Z,95793.5
2022-10-16T09:14:35.746Z,95793.5
2022-10-16T09:15:38.224Z,95794.8
2022-10-16T09:16:40.693Z,95791.9
2022-10-16T09:17:42.877Z,95789.1
2022-10-16T09:18:45.353Z,95788.2
2022-10-16T09:19:47.559Z,95787.1
2022-10-16T09:20:50.092Z,95787
2022-10-16T09:21:51.758Z,95792
2022-10-16T09:22:53.961Z,95792.5
2022-10-16T09:23:56.158Z,95791
2022-10-16T09:24:58.625Z,95793
2022-10-16T09:26:00.856Z,95798.1
2022-10-16T09:27:03.335Z,95790.4
2022-10-16T09:28:05.817Z,95796.7
2022-10-16T09:29:08.618Z,95788.5
2022-10-16T09:30:11.227Z,95797.3
2022-10-16T09:31:13.434Z,95792
2022-10-16T09:32:15.361Z,95785.8
2022-10-16T09:33:17.281Z,95788.7
2022-10-16T09:34:19.478Z,95784
2022-10-16T09:35:22.256Z,95793.3
2022-10-16T09:36:24.886Z,95788.4
2022-10-16T09:37:29.109Z,95789.1
2022-10-16T09:38:31.740Z,95796.4
2022-10-16T09:39:34.217Z,95802.7
2022-10-16T09:40:36.689Z,95802.6
2022-10-16T09:41:39.165Z,95802.7
2022-10-16T09:42:41.643Z,95805.8
2022-10-16T09:43:44.112Z,95810.2
2022-10-16T09:44:46.631Z,95808.3
2022-10-16T09:45:48.830Z,95801.2
2022-10-16T09:46:51.037Z,95807.3
2022-10-16T09:48:58.496Z,95805.5
2022-10-16T09:50:00.695Z,95806.3
2022-10-16T09:51:02.983Z,95805.3
2022-10-16T09:52:05.310Z,95806.9
2022-10-16T09:53:07.530Z,95805
2022-10-16T09:54:09.733Z,95806.9
2022-10-16T09:55:12.249Z,95809.9
2022-10-16T09:56:15.650Z,95807.5
2022-10-16T09:57:17.569Z,95811.2
2022-10-16T09:58:19.783Z,95812.4
2022-10-16T09:59:21.677Z,95811.5
2022-10-16T10:00:24.175Z,95808.8
2022-10-16T10:01:26.636Z,95810.2
2022-10-16T10:02:28.840Z,95811.2
2022-10-16T10:03:31.015Z,95812.7
2022-10-16T10:04:33.229Z,95812.7
2022-10-16T10:05:35.142Z,95809.9
2022-10-16T10:06:37.351Z,95811.2
2022-10-16T10:07:39.890Z,95806
2022-10-16T10:08:42.111Z,95808.1
2022-10-16T10:09:44.308Z,95804
2022-10-16T10:10:46.488Z,95803.4
2022-10-16T10:11:49.239Z,95804.3
2022-10-16T10:12:51.560Z,95808.4
2022-10-16T10:13:54.028Z,95810.5
2022-10-16T10:14:56.226Z,95809.4
2022-10-16T10:15:58.706Z,95809.4
2022-10-16T10:17:01.199Z,95810.8
2022-10-16T10:18:03.392Z,95812.8
2022-10-16T10:19:05.325Z,95808.5
2022-10-16T10:20:07.795Z,95815.8
2022-10-16T10:21:10.007Z,95817.8
2022-10-16T10:22:12.479Z,95813.3
2022-10-16T10:23:14.744Z,95815.3
2022-10-16T10:24:16.682Z,95818.6
2022-10-16T10:25:18.639Z,95819.5
2022-10-16T10:26:20.847Z,95818.5
2022-10-16T10:27:23.346Z,95818
2022-10-16T10:28:26.025Z,95817
2022-10-16T10:29:28.353Z,95818.5
2022-10-16T10:30:30.824Z,95815.4
2022-10-16T10:31:33.332Z,95815.4
2022-10-16T10:32:35.804Z,95816.4
2022-10-16T10:33:38.280Z,95815.2
2022-10-16T10:34:40.770Z,95817.4
2022-10-16T10:35:43.248Z,95819.2
2022-10-16T10:36:45.720Z,95817
2022-10-16T10:37:47.923Z,95815.4
2022-10-16T10:38:50.182Z,95814.5
2022-10-16T10:39:52.668Z,95812.7
2022-10-16T10:40:55.143Z,95812.8
2022-10-16T10:41:57.611Z,95814.7
2022-10-16T10:42:59.869Z,95811.8
2022-10-16T10:44:02.058Z,95811.5
2022-10-16T10:45:03.989Z,95811.9
2022-10-16T10:46:05.914Z,95811
2022-10-16T10:47:07.564Z,95813.1
2022-10-16T10:48:09.771Z,95816.5
2022-10-16T10:49:11.693Z,95813.6
2022-10-16T10:50:14.329Z,95812.5
2022-10-16T10:51:16.929Z,95811.2
2022-10-16T10:52:19.428Z,95811.1
2022-10-16T10:53:21.336Z,95808.6
2022-10-16T10:54:23.596Z,95813.7
2022-10-16T10:55:25.563Z,95810.9
2022-10-16T10:56:27.489Z,95812.2
2022-10-16T10:57:30.240Z,95812.1
2022-10-16T10:59:37.523Z,95815.1
2022-10-16T11:00:40.024Z,95813.7
2022-10-16T11:01:42.497Z,95814.6
2022-10-16T11:02:45.110Z,95815.8
2022-10-16T11:03:47.340Z,95813.3
2022-10-16T11:04:49.535Z,95805.5
2022-10-16T11:05:52.015Z,95810.3
2022-10-16T11:06:54.503Z,95808.8
2022-10-16T11:07:56.396Z,95810.9
2022-10-16T11:10:03.919Z,95805.8
2022-10-16T11:11:06.414Z,95807.1
2022-10-16T11:12:08.694Z,95809.6
2022-10-16T11:13:10.345Z,95808.9
2022-10-16T11:14:12.810Z,95810.7
2022-10-16T11:15:14.738Z,95806.1
2022-10-16T11:17:22.238Z,95808.1
2022-10-16T11:18:24.734Z,95806.5
2022-10-16T11:19:26.943Z,95811.3
2022-10-16T11:20:28.926Z,95808.3
2022-10-16T11:21:32.559Z,95811.7
2022-10-16T11:22:34.489Z,95807.9
2022-10-16T11:23:36.684Z,95808.3
2022-10-16T11:24:38.911Z,95808
2022-10-16T11:25:41.437Z,95809.7
2022-10-16T11:26:43.926Z,95810
2022-10-16T11:27:46.396Z,95809.1
2022-10-16T11:28:48.963Z,95811
2022-10-16T11:29:51.338Z,95810.1
2022-10-16T11:30:53.285Z,95810.4
2022-10-16T11:31:55.228Z,95810.6
2022-10-16T11:32:57.439Z,95808.3
2022-10-16T11:34:00.005Z,95808.4
2022-10-16T11:35:02.093Z,95806.6
2022-10-16T11:36:04.289Z,95807.1
2022-10-16T11:37:05.948Z,95806.3
2022-10-16T11:38:08.162Z,95800.1
2022-10-16T11:39:10.363Z,95800.1
2022-10-16T11:40:12.677Z,95800.6
2022-10-16T11:41:15.339Z,95800.3
2022-10-16T11:42:17.553Z,95801.1
2022-10-16T11:43:19.490Z,95800.2
2022-10-16T11:44:21.683Z,95802.5
2022-10-16T11:45:24.158Z,95802.1
2022-10-16T11:46:26.097Z,95804
2022-10-16T11:48:33.571Z,95801.1
2022-10-16T11:49:36.080Z,95803.3
2022-10-16T11:50:38.553Z,95800.9
2022-10-16T11:51:40.755Z,95803.4
2022-10-16T11:52:43.230Z,95802.3
2022-10-16T11:53:45.455Z,95799.7
2022-10-16T11:54:47.691Z,95805.6
2022-10-16T11:55:49.898Z,95799.5
2022-10-16T11:56:52.433Z,95798.3
2022-10-16T11:57:54.929Z,95797.6
2022-10-16T11:58:57.408Z,95798.5
2022-10-16T11:59:59.923Z,95802.3
2022-10-16T12:01:02.122Z,95798.5
2022-10-16T12:02:04.618Z,95802.3
2022-10-16T12:03:06.791Z,95802.1
2022-10-16T12:04:09.212Z,95806.3
2022-10-16T12:05:11.713Z,95808.8
2022-10-16T12:06:13.930Z,95806.2
2022-10-16T12:07:16.116Z,95805.6
2022-10-16T12:08:18.605Z,95804.2
2022-10-16T12:09:21.080Z,95802.9
2022-10-16T12:11:28.567Z,95802.7
2022-10-16T12:13:36.112Z,95792.3
2022-10-16T12:16:48.594Z,95794.5
2022-10-16T12:17:50.792Z,95793.9
2022-10-16T12:18:52.984Z,95791.8
2022-10-16T12:19:55.490Z,95793.3
2022-10-16T12:20:58.013Z,95794.9
2022-10-16T12:22:00.201Z,95792.4
2022-10-16T12:23:02.668Z,95796.7
2022-10-16T12:24:05.149Z,95797
2022-10-16T12:25:07.344Z,95795.4
2022-10-16T12:26:09.555Z,95791.4
2022-10-16T12:27:11.486Z,95792.3
2022-10-16T12:28:13.967Z,95790.2
2022-10-16T12:29:16.495Z,95789.1
2022-10-16T12:30:19.008Z,95792.9
2022-10-16T12:31:21.472Z,95789
2022-10-16T12:33:28.402Z,95794.1
2022-10-16T12:34:30.933Z,95796.8
2022-10-16T12:35:33.406Z,95791.3
2022-10-16T12:36:35.348Z,95794.8
2022-10-16T12:37:37.557Z,95793.3
2022-10-16T12:38:39.762Z,95788.1
2022-10-16T12:39:41.967Z,95786.6
2022-10-16T12:40:43.890Z,95788.9
2022-10-16T12:41:46.358Z,95790
2022-10-16T12:42:48.871Z,95789.3
2022-10-16T12:43:51.342Z,95786
2022-10-16T12:44:53.883Z,95787.2
2022-10-16T12:45:56.368Z,95785.3
2022-10-16T12:46:58.859Z,95787.9
2022-10-16T12:48:01.325Z,95785.2
2022-10-16T12:51:13.798Z,95787.7
2022-10-16T12:52:15.722Z,95786.7
2022-10-16T12:53:17.952Z,95784.5
2022-10-16T12:54:20.426Z,95783.5
2022-10-16T12:55:22.896Z,95783.9
2022-10-16T12:56:25.105Z,95786.2
2022-10-16T12:57:28.612Z,95784.4
2022-10-16T12:58:31.618Z,95780.4
2022-10-16T12:59:33.816Z,95787
2022-10-16T13:00:36.339Z,95785.4
2022-10-16T13:01:38.933Z,95788.5
2022-10-16T13:02:41.148Z,95785.8
2022-10-16T13:03:43.343Z,95787.2